createdAt,value
2018-03-03T00:04:08.982Z,-9.20
2018-03-03T00:08:52.423Z,-9.20
2018-03-03T00:13:36.710Z,-9.40
2018-03-03T00:18:20.171Z,-9.50
2018-03-03T00:23:03.604Z,-9.60
2018-03-03T00:28:07.669Z,-9.90
2018-03-03T00:32:51.793Z,-10.20
2018-03-03T00:37:35.253Z,-10.60
2018-03-03T00:42:18.722Z,-10.80
2018-03-03T00:47:02.898Z,-11.20
2018-03-03T00:51:47.193Z,-11.30
2018-03-03T00:56:30.664Z,-11.30
2018-03-03T01:01:14.213Z,-11.10
2018-03-03T01:05:57.679Z,-11.20
2018-03-03T01:10:41.214Z,-11.20
2018-03-03T01:15:25.396Z,-11.20
2018-03-03T01:20:08.816Z,-11.20
2018-03-03T01:24:52.248Z,-11.30
2018-03-03T01:29:35.661Z,-11.20
2018-03-03T01:34:20.120Z,-11.30
2018-03-03T01:39:05.061Z,-11.10
2018-03-03T01:43:48.646Z,-10.90
2018-03-03T01:48:32.139Z,-10.80
2018-03-03T01:53:15.596Z,-10.80
2018-03-03T01:57:59.032Z,-10.90
2018-03-03T02:02:42.468Z,-11.30
2018-03-03T02:07:25.885Z,-11.60
2018-03-03T02:12:10.063Z,-11.90
2018-03-03T02:16:53.520Z,-11.90
2018-03-03T02:21:37.724Z,-12.10
2018-03-03T02:26:21.168Z,-12.20
2018-03-03T02:31:04.683Z,-12.30
2018-03-03T02:35:48.256Z,-12.40
2018-03-03T02:40:32.248Z,-12.50
2018-03-03T02:45:18.755Z,-12.60
2018-03-03T02:50:02.503Z,-12.70
2018-03-03T02:54:46.277Z,-12.80
2018-03-03T02:59:30.307Z,-12.80
2018-03-03T03:04:15.298Z,-12.80
2018-03-03T03:08:59.380Z,-12.90
2018-03-03T03:13:44.805Z,-13.00
2018-03-03T03:18:29.364Z,-13.00
2018-03-03T03:23:16.396Z,-13.00
2018-03-03T03:28:00.263Z,-13.00
2018-03-03T03:32:49.607Z,-13.00
2018-03-03T03:37:35.282Z,-13.00
2018-03-03T03:42:22.916Z,-12.80
2018-03-03T03:47:10.422Z,-12.80
2018-03-03T03:56:45.032Z,-12.70
2018-03-03T04:01:29.656Z,-12.40
2018-03-03T04:06:15.924Z,-12.00
2018-03-03T04:11:01.563Z,-12.10
2018-03-03T04:15:45.233Z,-11.80
2018-03-03T04:20:32.213Z,-11.70
2018-03-03T04:25:16.484Z,-11.70
2018-03-03T04:30:00.355Z,-11.60
2018-03-03T04:34:45.620Z,-11.80
2018-03-03T04:39:30.472Z,-11.80
2018-03-03T04:44:14.142Z,-11.80
2018-03-03T04:48:57.663Z,-11.80
2018-03-03T04:53:41.104Z,-11.90
2018-03-03T04:58:40.590Z,-11.90
2018-03-03T05:03:36.460Z,-11.80
2018-03-03T05:13:37.135Z,-11.70
2018-03-03T05:18:26.243Z,-11.70
2018-03-03T05:28:36.093Z,-11.60
2018-03-03T05:33:25.104Z,-11.50
2018-03-03T05:38:14.255Z,-11.60
2018-03-03T05:43:04.109Z,-11.60
2018-03-03T05:47:53.337Z,-11.60
2018-03-03T05:52:51.756Z,-11.50
2018-03-03T05:57:42.642Z,-11.50
2018-03-03T06:02:33.202Z,-11.60
2018-03-03T06:12:35.557Z,-11.60
2018-03-03T06:17:18.933Z,-11.60
2018-03-03T06:22:03.295Z,-11.30
2018-03-03T06:26:47.389Z,-11.20
2018-03-03T06:31:30.771Z,-11.20
2018-03-03T06:36:14.238Z,-11.10
2018-03-03T06:40:58.360Z,-10.70
2018-03-03T06:45:41.777Z,-10.70
2018-03-03T06:50:25.363Z,-10.50
2018-03-03T06:55:08.774Z,-10.50
2018-03-03T06:59:52.247Z,-10.40
2018-03-03T07:04:36.447Z,-10.20
2018-03-03T07:09:19.814Z,-10.20
2018-03-03T07:14:03.164Z,-10.10
2018-03-03T07:18:46.576Z,-10.10
2018-03-03T07:23:30.711Z,-9.90
2018-03-03T07:28:14.028Z,-9.90
2018-03-03T07:32:57.499Z,-9.80
2018-03-03T07:37:41.658Z,-9.60
2018-03-03T07:42:25.080Z,-9.70
2018-03-03T07:47:08.576Z,-9.60
2018-03-03T07:51:52.057Z,-9.50
2018-03-03T07:56:47.260Z,-9.30
2018-03-03T08:01:30.705Z,-9.20
2018-03-03T08:06:14.111Z,-9.00
2018-03-03T08:10:58.372Z,-8.70
2018-03-03T08:15:41.849Z,-8.70
2018-03-03T08:20:25.247Z,-8.50
2018-03-03T08:25:09.427Z,-8.10
2018-03-03T08:29:52.854Z,-8.10
2018-03-03T08:34:36.182Z,-7.80
2018-03-03T08:39:20.522Z,-7.30
2018-03-03T08:44:04.015Z,-7.30
2018-03-03T08:48:47.412Z,-7.00
2018-03-03T08:53:30.838Z,-6.70
2018-03-03T08:58:14.246Z,-6.30
2018-03-03T09:02:57.679Z,-5.90
2018-03-03T09:07:41.309Z,-5.60
2018-03-03T09:12:24.711Z,-5.00
2018-03-03T09:17:08.080Z,-4.70
2018-03-03T09:21:52.271Z,-4.40
2018-03-03T09:26:35.644Z,-4.40
2018-03-03T09:31:19.026Z,-4.40
2018-03-03T09:36:02.440Z,-4.30
2018-03-03T09:40:45.874Z,-4.20
2018-03-03T09:45:30.183Z,-4.00
2018-03-03T09:50:13.672Z,-4.00
2018-03-03T09:54:57.234Z,-3.80
2018-03-03T09:59:41.489Z,-3.60
2018-03-03T10:04:25.832Z,-3.70
2018-03-03T10:09:10.146Z,-3.20
2018-03-03T10:13:54.473Z,-3.00
2018-03-03T10:18:38.015Z,-3.00
2018-03-03T10:23:21.459Z,-2.80
2018-03-03T10:28:04.783Z,-2.60
2018-03-03T10:32:49.674Z,-2.30
2018-03-03T10:37:33.341Z,-2.20
2018-03-03T10:42:17.107Z,-1.90
2018-03-03T10:47:00.758Z,-1.90
2018-03-03T10:51:44.558Z,-1.80
2018-03-03T10:56:28.033Z,-1.80
2018-03-03T11:01:11.444Z,-1.50
2018-03-03T11:05:54.949Z,-0.90
2018-03-03T11:10:39.291Z,0.50
2018-03-03T11:15:25.069Z,1.00
2018-03-03T11:20:09.313Z,1.60
2018-03-03T11:24:52.741Z,1.60
2018-03-03T11:29:36.195Z,1.70
2018-03-03T11:34:20.331Z,1.60
2018-03-03T11:39:03.709Z,1.60
2018-03-03T11:43:47.256Z,1.40
2018-03-03T11:48:30.827Z,1.60
2018-03-03T11:53:14.158Z,1.40
2018-03-03T11:57:57.555Z,1.20
2018-03-03T12:02:41.149Z,1.20
2018-03-03T12:07:25.207Z,0.50
2018-03-03T12:12:11.434Z,-0.20
2018-03-03T12:16:55.037Z,-0.50
2018-03-03T12:21:38.436Z,-0.80
2018-03-03T12:26:21.880Z,-0.80
2018-03-03T12:31:05.466Z,-0.70
2018-03-03T12:35:49.160Z,-0.70
2018-03-03T12:40:35.620Z,-0.80
2018-03-03T12:45:19.114Z,-0.90
2018-03-03T12:50:02.727Z,-0.90
2018-03-03T12:54:49.808Z,-0.90
2018-03-03T12:59:34.098Z,-0.90
2018-03-03T13:04:27.610Z,-1.00
2018-03-03T13:09:18.275Z,-1.10
2018-03-03T13:14:01.666Z,-1.10
2018-03-03T13:18:45.096Z,-1.00
2018-03-03T13:23:29.310Z,-1.00
2018-03-03T13:28:12.975Z,-1.00
2018-03-03T13:32:56.494Z,-1.10
2018-03-03T13:37:40.874Z,-1.00
2018-03-03T13:42:24.183Z,-1.00
2018-03-03T13:47:08.343Z,-1.00
2018-03-03T13:51:52.066Z,-1.00
2018-03-03T13:56:35.502Z,-0.70
2018-03-03T14:01:18.875Z,-0.80
2018-03-03T14:06:02.259Z,-0.60
2018-03-03T14:10:45.585Z,-0.70
2018-03-03T14:15:28.949Z,-0.60
2018-03-03T14:20:12.305Z,-0.60
2018-03-03T14:24:55.737Z,-0.50
2018-03-03T14:29:39.159Z,-0.60
2018-03-03T14:34:22.641Z,-0.50
2018-03-03T14:39:06.801Z,-0.60
2018-03-03T14:43:50.153Z,-0.70
2018-03-03T14:48:34.324Z,-1.00
2018-03-03T14:53:17.685Z,-0.90
2018-03-03T14:58:01.079Z,-1.00
2018-03-03T15:02:44.438Z,-0.90
2018-03-03T15:07:28.800Z,-0.80
2018-03-03T15:12:12.223Z,-0.80
2018-03-03T15:16:56.440Z,-0.60
2018-03-03T15:21:41.120Z,-0.60
2018-03-03T15:26:24.736Z,-0.40
2018-03-03T15:31:08.128Z,-0.30
2018-03-03T15:35:51.584Z,-0.40
2018-03-03T15:40:35.848Z,-0.40
2018-03-03T15:50:28.742Z,-0.60
2018-03-03T15:55:12.087Z,-0.80
2018-03-03T15:59:55.468Z,-1.00
2018-03-03T16:04:39.581Z,-1.80
2018-03-03T16:09:22.927Z,-1.90
2018-03-03T16:14:06.304Z,-2.20
2018-03-03T16:18:49.656Z,-2.60
2018-03-03T16:23:33.283Z,-2.90
2018-03-03T16:28:17.455Z,-2.90
2018-03-03T16:33:00.838Z,-3.20
2018-03-03T16:37:44.184Z,-3.30
2018-03-03T16:42:27.542Z,-3.40
2018-03-03T16:47:10.904Z,-3.60
2018-03-03T16:51:55.002Z,-4.00
2018-03-03T16:56:38.372Z,-4.00
2018-03-03T17:01:21.684Z,-4.00
2018-03-03T17:06:05.014Z,-4.10
2018-03-03T17:10:48.362Z,-4.30
2018-03-03T17:15:31.767Z,-4.40
2018-03-03T17:20:15.937Z,-4.60
2018-03-03T17:25:00.330Z,-4.70
2018-03-03T17:29:43.648Z,-4.70
2018-03-03T17:34:27.021Z,-4.90
2018-03-03T17:39:10.392Z,-5.10
2018-03-03T17:43:53.751Z,-5.30
2018-03-03T17:48:37.895Z,-5.90
2018-03-03T17:53:21.219Z,-5.90
2018-03-03T17:58:05.459Z,-6.10
2018-03-03T18:02:50.526Z,-6.20
2018-03-03T18:07:34.110Z,-6.20
2018-03-03T18:12:17.475Z,-6.20
2018-03-03T18:17:01.576Z,-6.50
2018-03-03T18:21:44.975Z,-6.50
2018-03-03T18:26:28.319Z,-6.50
2018-03-03T18:31:12.418Z,-6.60
2018-03-03T18:35:56.897Z,-6.70
2018-03-03T18:40:41.104Z,-6.80
2018-03-03T18:45:24.654Z,-6.80
2018-03-03T18:50:08.867Z,-6.60
2018-03-03T18:54:52.851Z,-6.60
2018-03-03T18:59:36.326Z,-6.60
2018-03-03T19:04:21.364Z,-6.60
2018-03-03T19:09:04.713Z,-6.60
2018-03-03T19:13:48.132Z,-6.60
2018-03-03T19:18:34.389Z,-6.70
2018-03-03T19:23:22.179Z,-6.70
2018-03-03T19:28:07.745Z,-6.70
2018-03-03T19:32:52.347Z,-6.80
2018-03-03T19:37:44.877Z,-6.80
2018-03-03T19:42:39.798Z,-7.00
2018-03-03T19:47:37.926Z,-6.90
2018-03-03T19:52:28.190Z,-7.10
2018-03-03T19:57:14.844Z,-7.30
2018-03-03T20:01:59.519Z,-7.30
2018-03-03T20:07:01.168Z,-7.40
2018-03-03T20:11:48.562Z,-7.70
2018-03-03T20:16:36.207Z,-8.00
2018-03-03T20:21:22.285Z,-8.00
2018-03-03T20:38:38.198Z,-7.90
2018-03-03T20:58:19.483Z,-8.00
2018-03-03T21:03:03.733Z,-8.30
2018-03-03T21:07:51.509Z,-8.30
2018-03-03T21:12:36.070Z,-8.50
2018-03-03T21:17:20.619Z,-8.70
2018-03-03T21:22:09.207Z,-8.50
2018-03-03T21:27:08.558Z,-8.50
2018-03-03T21:31:59.394Z,-8.50
2018-03-03T21:36:44.624Z,-8.60
2018-03-03T21:41:30.761Z,-8.90
2018-03-03T21:46:15.991Z,-9.20
2018-03-03T21:50:59.487Z,-9.20
2018-03-03T21:55:45.006Z,-9.20
2018-03-03T22:00:32.102Z,-9.30
2018-03-03T22:05:15.599Z,-9.30
2018-03-03T22:09:59.257Z,-9.20
2018-03-03T22:14:44.779Z,-9.20
2018-03-03T22:19:29.772Z,-9.00
2018-03-03T22:29:34.389Z,-9.00
2018-03-03T22:34:57.149Z,-9.10
2018-03-03T22:39:40.943Z,-9.10
2018-03-03T22:44:28.198Z,-9.10
2018-03-03T22:49:12.819Z,-9.10
2018-03-03T22:53:59.197Z,-9.20
2018-03-03T22:58:44.312Z,-9.10
2018-03-03T23:03:28.163Z,-9.20
2018-03-03T23:08:12.162Z,-9.20
2018-03-03T23:12:55.967Z,-9.20
2018-03-03T23:17:39.544Z,-9.20
2018-03-03T23:22:23.232Z,-9.20
2018-03-03T23:27:07.082Z,-9.30
2018-03-03T23:31:50.783Z,-9.40
2018-03-03T23:36:34.496Z,-9.50
2018-03-03T23:41:17.986Z,-9.50
2018-03-03T23:46:01.500Z,-9.40
2018-03-03T23:50:45.273Z,-9.40
2018-03-03T23:55:29.132Z,-9.50
